Citrix Systems Pre-Tax Profit Margin 2006-2019 | CTXS

Current and historical pre-tax profit margin for Citrix Systems (CTXS) from 2006 to 2019. Pre-tax profit margin can be defined as earnings before taxes as a portion of total revenue. Citrix Systems pre-tax profit margin for the three months ending December 31, 2019 was .
Citrix Systems Pre-Tax Profit Margin Historical Data
Date TTM Revenue TTM Pre-Tax Income Pre-Tax Margin
2019-12-31 $3.01B $0.51B 16.90%
2019-09-30 $3.00B $0.52B 17.35%
2019-06-30 $3.00B $0.57B 19.05%
2019-03-31 $3.00B $0.60B 19.90%
2018-12-31 $2.97B $0.63B 21.16%
2018-09-30 $2.95B $0.62B 21.13%
2018-06-30 $2.91B $0.60B 20.56%
2018-03-31 $2.86B $0.58B 20.32%
2017-12-31 $2.83B $0.55B 19.47%
2017-09-30 $2.78B $0.56B 20.13%
2017-06-30 $2.76B $0.55B 19.86%
2017-03-31 $2.74B $0.56B 20.47%
2016-12-31 $2.74B $0.53B 19.29%
2016-09-30 $2.28B $0.30B 13.22%
2016-06-30 $2.42B $0.23B 9.58%
2016-03-31 $2.54B $0.22B 8.49%
2015-12-31 $2.65B $0.17B 6.24%
2015-09-30 $3.22B $0.31B 9.56%
2015-06-30 $3.17B $0.30B 9.56%
2015-03-31 $3.15B $0.24B 7.71%
2014-12-31 $3.14B $0.28B 8.78%
2014-09-30 $3.09B $0.33B 10.67%
2014-06-30 $3.05B $0.37B 12.24%
2014-03-31 $3.00B $0.40B 13.32%
2013-12-31 $2.92B $0.39B 13.30%
2013-09-30 $2.86B $0.38B 13.13%
2013-06-30 $2.78B $0.38B 13.47%
2013-03-31 $2.67B $0.38B 14.39%
2012-12-31 $2.59B $0.41B 15.90%
2012-09-30 $2.46B $0.40B 16.27%
2012-06-30 $2.39B $0.41B 17.29%
2012-03-31 $2.30B $0.43B 18.58%
2011-12-31 $2.21B $0.43B 19.54%
2011-09-30 $2.12B $0.41B 19.27%
2011-06-30 $2.02B $0.39B 19.37%
2011-03-31 $1.95B $0.37B 18.76%
2010-12-31 $1.87B $0.33B 17.82%
2010-09-30 $1.80B $0.30B 16.66%
2010-06-30 $1.72B $0.27B 15.89%
2010-03-31 $1.66B $0.24B 14.71%
2009-12-31 $1.61B $0.19B 12.02%
2009-09-30 $1.58B $0.19B 11.72%
2009-06-30 $1.58B $0.17B 11.03%
2009-03-31 $1.58B $0.16B 10.41%
2008-12-31 $1.58B $0.20B 12.44%
2008-09-30 $1.57B $0.19B 11.86%
2008-06-30 $1.52B $0.21B 13.69%
2008-03-31 $1.46B $0.24B 16.43%
2007-12-31 $1.39B $0.25B 18.03%
2007-09-30 $1.31B $0.26B 19.88%
2007-06-30 $1.24B $0.25B 19.74%
2007-03-31 $1.18B $0.24B 20.14%
2006-12-31 $1.13B $0.24B 21.43%
2006-09-30 $1.08B $0.24B 22.46%
2006-06-30 $1.03B $0.24B 22.89%
2006-03-31 $0.97B $0.23B 23.78%
2005-12-31 $0.91B $0.22B 24.64%
Sector Industry Market Cap Revenue
Computer and Technology Computer Software $15.891B $3.011B
Citrix Systems, Inc. aims to power a world where people, organizations and things are securely connected and accessible to make the extraordinary possible. They help customers reimaging the future of work by providing the most comprehensive secure digital workspace that unifies the apps, data and services people need to be productive, and simplifies IT's ability to adopt and manage complex cloud environments. Citrix Systems become the leader in Workspace as a Service (WaaS) by delivering the industry's most comprehensive and integrated platform for secure app, data and network delivery as a service in the Citrix Cloud. Citrix Systems become the preferred and most-used solution for enterprise file synchronization and sharing (EFSS) for business users across all segments.
Stock Name Country Market Cap PE Ratio
Microsoft (MSFT) United States $1000.000B 34.32
Adobe (ADBE) United States $183.051B 58.32
Oracle (ORCL) United States $177.928B 16.51
Salesforce, Inc (CRM) United States $168.486B 140.70
SAP SE (SAP) Germany $164.048B 32.04
Intuit (INTU) United States $79.207B 53.76
VMware (VMW) United States $66.332B 36.04
Autodesk (ADSK) United States $45.976B 197.12
Dassault Systemes SA (DASTY) France $43.304B 47.71
Synopsys (SNPS) United States $24.590B 47.08
ANSYS (ANSS) United States $24.582B 54.27
Cadence Design Systems (CDNS) United States $22.100B 22.31
SS&C Technologies Holdings (SSNC) United States $16.745B 18.30
Open Text (OTEX) Canada $12.935B 39.50
PTC (PTC) United States $10.088B 63.76
Aspen Technology (AZPN) United States $8.647B 34.79
Pegasystems (PEGA) United States $7.877B 0.00
Trend Micro (TMICY) Japan $7.539B 28.11
Nuance Communications (NUAN) United States $6.546B 28.57
Konami (KNMCY) Japan $5.281B 18.33
Manhattan Associates (MANH) United States $5.115B 60.77
ACI Worldwide (ACIW) United States $4.156B 38.66
Blackbaud (BLKB) United States $4.001B 64.56
Descartes Systems Group (DSGX) Canada $3.953B 117.43
Verint Systems (VRNT) United States $3.940B 22.85
Cornerstone OnDemand (CSOD) United States $3.575B 368.00
CommVault Systems (CVLT) United States $2.399B 114.40
Bottomline Technologies (EPAY) United States $2.156B 104.23
PROS Holdings (PRO) United States $2.137B 0.00
Progress Software (PRGS) United States $2.031B 19.75
MicroStrategy (MSTR) United States $1.528B 123.01
Sapiens (SPNS) Israel $1.302B 37.70
QAD (QADB) United States $0.730B 448.13
Simulations Plus (SLP) United States $0.647B 73.30
Magic Software Enterprises (MGIC) Israel $0.563B 20.17
American Software (AMSWA) United States $0.485B 52.38
Rosetta Stone (RST) United States $0.481B 0.00
Avid Technology (AVID) United States $0.398B 21.49
Smith Micro Software (SMSI) United States $0.239B 21.38
Icad Inc (ICAD) United States $0.232B 0.00
ServiceSource (SREV) United States $0.180B 0.00
OptimizeRx (OPRX) United States $0.150B 0.00
Park City (PCYG) United States $0.107B 61.00
NetSol Technologies (NTWK) United States $0.048B 9.27
GSE Systems (GVP) United States $0.025B 8.20
Neonode (NEON) Sweden $0.021B 0.00
BSQUARE (BSQR) United States $0.018B 0.00
CounterPath (CPAH) Canada $0.015B 0.00